sensor_id;sensor_type;location;lat;lon;timestamp;temperature;humidity
59556;DHT22;45374;52.746;6.304;2023-04-03T00:02:15;1.70;99.90
59556;DHT22;45374;52.746;6.304;2023-04-03T00:04:41;1.60;99.90
59556;DHT22;45374;52.746;6.304;2023-04-03T00:07:06;1.60;99.90
59556;DHT22;45374;52.746;6.304;2023-04-03T00:09:32;1.60;99.90
59556;DHT22;45374;52.746;6.304;2023-04-03T00:11:57;1.50;99.90
59556;DHT22;45374;52.746;6.304;2023-04-03T00:14:23;1.50;99.90
59556;DHT22;45374;52.746;6.304;2023-04-03T00:16:49;1.40;99.90
59556;DHT22;45374;52.746;6.304;2023-04-03T00:19:14;1.40;99.90
59556;DHT22;45374;52.746;6.304;2023-04-03T00:21:40;1.40;99.90
59556;DHT22;45374;52.746;6.304;2023-04-03T00:24:06;1.40;99.90
59556;DHT22;45374;52.746;6.304;2023-04-03T00:26:32;1.30;99.90
59556;DHT22;45374;52.746;6.304;2023-04-03T00:28:57;1.40;99.90
59556;DHT22;45374;52.746;6.304;2023-04-03T00:31:23;1.30;99.90
59556;DHT22;45374;52.746;6.304;2023-04-03T00:33:48;1.30;99.90
59556;DHT22;45374;52.746;6.304;2023-04-03T00:36:14;1.30;99.90
59556;DHT22;45374;52.746;6.304;2023-04-03T00:38:40;1.40;99.90
59556;DHT22;45374;52.746;6.304;2023-04-03T00:41:06;1.40;99.90
59556;DHT22;45374;52.746;6.304;2023-04-03T00:43:32;1.40;99.90
59556;DHT22;45374;52.746;6.304;2023-04-03T00:45:59;1.40;99.90
59556;DHT22;45374;52.746;6.304;2023-04-03T00:48:31;1.40;99.90
59556;DHT22;45374;52.746;6.304;2023-04-03T00:50:58;1.40;99.90
59556;DHT22;45374;52.746;6.304;2023-04-03T00:53:37;1.40;99.90
59556;DHT22;45374;52.746;6.304;2023-04-03T00:56:10;1.40;99.90
59556;DHT22;45374;52.746;6.304;2023-04-03T00:58:37;1.40;99.90
59556;DHT22;45374;52.746;6.304;2023-04-03T01:01:08;1.40;99.90
59556;DHT22;45374;52.746;6.304;2023-04-03T01:03:35;1.40;99.90
59556;DHT22;45374;52.746;6.304;2023-04-03T01:06:01;1.40;99.90
59556;DHT22;45374;52.746;6.304;2023-04-03T01:08:27;1.40;99.90
59556;DHT22;45374;52.746;6.304;2023-04-03T01:10:52;1.40;99.90
59556;DHT22;45374;52.746;6.304;2023-04-03T01:13:22;1.40;99.90
59556;DHT22;45374;52.746;6.304;2023-04-03T01:15:48;1.40;99.90
59556;DHT22;45374;52.746;6.304;2023-04-03T01:18:14;1.30;99.90
59556;DHT22;45374;52.746;6.304;2023-04-03T01:25:59;1.30;99.90
59556;DHT22;45374;52.746;6.304;2023-04-03T01:28:31;1.30;99.90
59556;DHT22;45374;52.746;6.304;2023-04-03T01:31:23;1.20;99.90
59556;DHT22;45374;52.746;6.304;2023-04-03T01:33:50;1.20;99.90
59556;DHT22;45374;52.746;6.304;2023-04-03T01:36:21;1.20;99.90
59556;DHT22;45374;52.746;6.304;2023-04-03T01:38:48;1.20;99.90
59556;DHT22;45374;52.746;6.304;2023-04-03T01:41:14;1.10;99.90
59556;DHT22;45374;52.746;6.304;2023-04-03T01:43:41;1.20;99.90
59556;DHT22;45374;52.746;6.304;2023-04-03T01:46:06;1.10;99.90
59556;DHT22;45374;52.746;6.304;2023-04-03T01:48:33;1.10;99.90
59556;DHT22;45374;52.746;6.304;2023-04-03T01:50:58;1.00;99.90
59556;DHT22;45374;52.746;6.304;2023-04-03T01:53:24;1.00;99.90
59556;DHT22;45374;52.746;6.304;2023-04-03T01:55:49;1.00;99.90
59556;DHT22;45374;52.746;6.304;2023-04-03T01:58:15;1.00;99.90
59556;DHT22;45374;52.746;6.304;2023-04-03T02:00:41;0.90;99.90
59556;DHT22;45374;52.746;6.304;2023-04-03T02:03:06;0.90;99.90
59556;DHT22;45374;52.746;6.304;2023-04-03T02:05:32;0.90;99.90
59556;DHT22;45374;52.746;6.304;2023-04-03T02:07:58;0.80;99.90
59556;DHT22;45374;52.746;6.304;2023-04-03T02:10:23;0.80;99.90
59556;DHT22;45374;52.746;6.304;2023-04-03T02:12:49;0.80;99.90
59556;DHT22;45374;52.746;6.304;2023-04-03T02:15:15;0.70;99.90
59556;DHT22;45374;52.746;6.304;2023-04-03T02:17:40;0.70;99.90
59556;DHT22;45374;52.746;6.304;2023-04-03T02:20:06;0.70;99.90
59556;DHT22;45374;52.746;6.304;2023-04-03T02:22:32;0.70;99.90
59556;DHT22;45374;52.746;6.304;2023-04-03T02:24:57;0.70;99.90
59556;DHT22;45374;52.746;6.304;2023-04-03T02:27:23;0.70;99.90
59556;DHT22;45374;52.746;6.304;2023-04-03T02:29:49;0.60;99.90
59556;DHT22;45374;52.746;6.304;2023-04-03T02:32:15;0.60;99.90
59556;DHT22;45374;52.746;6.304;2023-04-03T02:34:40;0.60;99.90
59556;DHT22;45374;52.746;6.304;2023-04-03T02:37:06;0.60;99.90
59556;DHT22;45374;52.746;6.304;2023-04-03T02:39:31;0.60;99.90
59556;DHT22;45374;52.746;6.304;2023-04-03T02:41:57;0.60;99.90
59556;DHT22;45374;52.746;6.304;2023-04-03T02:44:23;0.60;99.90
59556;DHT22;45374;52.746;6.304;2023-04-03T02:46:49;0.60;99.90
59556;DHT22;45374;52.746;6.304;2023-04-03T02:49:14;0.60;99.90
59556;DHT22;45374;52.746;6.304;2023-04-03T02:51:41;0.60;99.90
59556;DHT22;45374;52.746;6.304;2023-04-03T02:54:06;0.50;99.90
59556;DHT22;45374;52.746;6.304;2023-04-03T02:56:32;0.50;99.90
59556;DHT22;45374;52.746;6.304;2023-04-03T02:58:57;0.50;99.90
59556;DHT22;45374;52.746;6.304;2023-04-03T03:01:23;0.50;99.90
59556;DHT22;45374;52.746;6.304;2023-04-03T03:03:49;0.50;99.90
59556;DHT22;45374;52.746;6.304;2023-04-03T03:06:16;0.40;99.90
59556;DHT22;45374;52.746;6.304;2023-04-03T03:08:42;0.40;99.90
59556;DHT22;45374;52.746;6.304;2023-04-03T03:11:08;0.40;99.90
59556;DHT22;45374;52.746;6.304;2023-04-03T03:13:34;0.40;99.90
59556;DHT22;45374;52.746;6.304;2023-04-03T03:16:01;0.30;99.90
59556;DHT22;45374;52.746;6.304;2023-04-03T03:18:26;0.30;99.90
59556;DHT22;45374;52.746;6.304;2023-04-03T03:20:53;0.30;99.90
59556;DHT22;45374;52.746;6.304;2023-04-03T03:23:20;0.30;99.90
59556;DHT22;45374;52.746;6.304;2023-04-03T03:25:46;0.20;99.90
59556;DHT22;45374;52.746;6.304;2023-04-03T03:28:11;0.20;99.90
59556;DHT22;45374;52.746;6.304;2023-04-03T03:30:37;0.20;99.90
59556;DHT22;45374;52.746;6.304;2023-04-03T03:33:03;0.20;99.90
59556;DHT22;45374;52.746;6.304;2023-04-03T03:35:28;0.20;99.90
59556;DHT22;45374;52.746;6.304;2023-04-03T03:37:54;0.10;99.90
59556;DHT22;45374;52.746;6.304;2023-04-03T03:40:19;0.10;99.90
59556;DHT22;45374;52.746;6.304;2023-04-03T03:42:46;0.10;99.90
59556;DHT22;45374;52.746;6.304;2023-04-03T03:45:11;0.10;99.90
59556;DHT22;45374;52.746;6.304;2023-04-03T03:47:37;0.00;99.90
59556;DHT22;45374;52.746;6.304;2023-04-03T03:50:03;0.00;99.90
59556;DHT22;45374;52.746;6.304;2023-04-03T03:52:29;0.00;99.90
59556;DHT22;45374;52.746;6.304;2023-04-03T03:54:55;0.00;99.90
59556;DHT22;45374;52.746;6.304;2023-04-03T03:57:21;-0.10;99.90
59556;DHT22;45374;52.746;6.304;2023-04-03T03:59:47;-0.10;99.90
59556;DHT22;45374;52.746;6.304;2023-04-03T04:02:14;-0.10;99.90
59556;DHT22;45374;52.746;6.304;2023-04-03T04:04:40;-0.20;99.90
59556;DHT22;45374;52.746;6.304;2023-04-03T04:07:05;-0.30;99.90
59556;DHT22;45374;52.746;6.304;2023-04-03T04:09:31;-0.30;99.90
59556;DHT22;45374;52.746;6.304;2023-04-03T04:11:57;-0.40;99.90
59556;DHT22;45374;52.746;6.304;2023-04-03T04:14:23;-0.40;99.90
59556;DHT22;45374;52.746;6.304;2023-04-03T04:16:51;-0.50;99.90
59556;DHT22;45374;52.746;6.304;2023-04-03T04:19:17;-0.50;99.90
59556;DHT22;45374;52.746;6.304;2023-04-03T04:21:42;-0.50;99.90
59556;DHT22;45374;52.746;6.304;2023-04-03T04:24:08;-0.60;99.90
59556;DHT22;45374;52.746;6.304;2023-04-03T04:26:34;-0.60;99.90
59556;DHT22;45374;52.746;6.304;2023-04-03T04:29:00;-0.70;99.90
59556;DHT22;45374;52.746;6.304;2023-04-03T04:31:25;-0.70;99.90
59556;DHT22;45374;52.746;6.304;2023-04-03T04:33:51;-0.70;99.90
59556;DHT22;45374;52.746;6.304;2023-04-03T04:36:16;-0.80;99.90
59556;DHT22;45374;52.746;6.304;2023-04-03T04:38:42;-0.80;99.90
59556;DHT22;45374;52.746;6.304;2023-04-03T04:41:08;-0.80;99.90
59556;DHT22;45374;52.746;6.304;2023-04-03T04:43:33;-0.80;99.90
59556;DHT22;45374;52.746;6.304;2023-04-03T04:46:06;-0.80;99.90
59556;DHT22;45374;52.746;6.304;2023-04-03T04:48:32;-0.80;99.90
59556;DHT22;45374;52.746;6.304;2023-04-03T04:50:58;-0.80;99.90
59556;DHT22;45374;52.746;6.304;2023-04-03T04:53:23;-0.80;99.90
59556;DHT22;45374;52.746;6.304;2023-04-03T04:55:49;-0.80;99.90
59556;DHT22;45374;52.746;6.304;2023-04-03T04:58:14;-0.80;99.90
59556;DHT22;45374;52.746;6.304;2023-04-03T05:00:40;-0.80;99.90
59556;DHT22;45374;52.746;6.304;2023-04-03T05:03:05;-0.80;99.90
59556;DHT22;45374;52.746;6.304;2023-04-03T05:05:31;-0.70;99.90
59556;DHT22;45374;52.746;6.304;2023-04-03T05:07:57;-0.70;99.90
59556;DHT22;45374;52.746;6.304;2023-04-03T05:10:22;-0.70;99.90
59556;DHT22;45374;52.746;6.304;2023-04-03T05:12:48;-0.70;99.90
59556;DHT22;45374;52.746;6.304;2023-04-03T05:15:14;-0.70;99.90
59556;DHT22;45374;52.746;6.304;2023-04-03T05:17:39;-0.70;99.90
59556;DHT22;45374;52.746;6.304;2023-04-03T05:20:05;-0.70;99.90
59556;DHT22;45374;52.746;6.304;2023-04-03T05:22:31;-0.70;99.90
59556;DHT22;45374;52.746;6.304;2023-04-03T05:24:57;-0.70;99.90
59556;DHT22;45374;52.746;6.304;2023-04-03T05:27:22;-0.70;99.90
59556;DHT22;45374;52.746;6.304;2023-04-03T05:29:49;-0.70;99.90
59556;DHT22;45374;52.746;6.304;2023-04-03T05:32:15;-0.70;99.90
59556;DHT22;45374;52.746;6.304;2023-04-03T05:34:41;-0.60;99.90
59556;DHT22;45374;52.746;6.304;2023-04-03T05:37:07;-0.60;99.90
59556;DHT22;45374;52.746;6.304;2023-04-03T05:39:32;-0.50;99.90
59556;DHT22;45374;52.746;6.304;2023-04-03T05:41:58;-0.50;99.90
59556;DHT22;45374;52.746;6.304;2023-04-03T05:44:24;-0.40;99.90
59556;DHT22;45374;52.746;6.304;2023-04-03T05:46:49;-0.40;99.90
59556;DHT22;45374;52.746;6.304;2023-04-03T05:49:15;-0.30;99.90
59556;DHT22;45374;52.746;6.304;2023-04-03T05:51:40;-0.30;99.90
59556;DHT22;45374;52.746;6.304;2023-04-03T05:54:12;-0.20;99.90
59556;DHT22;45374;52.746;6.304;2023-04-03T05:56:39;-0.20;99.90
59556;DHT22;45374;52.746;6.304;2023-04-03T05:59:04;-0.10;99.90
59556;DHT22;45374;52.746;6.304;2023-04-03T06:01:30;-0.10;99.90
59556;DHT22;45374;52.746;6.304;2023-04-03T06:03:56;0.00;99.90
59556;DHT22;45374;52.746;6.304;2023-04-03T06:06:23;0.00;99.90
59556;DHT22;45374;52.746;6.304;2023-04-03T06:08:50;0.10;99.90
59556;DHT22;45374;52.746;6.304;2023-04-03T06:11:15;0.10;99.90
59556;DHT22;45374;52.746;6.304;2023-04-03T06:13:41;0.20;99.90
59556;DHT22;45374;52.746;6.304;2023-04-03T06:16:10;0.30;99.90
59556;DHT22;45374;52.746;6.304;2023-04-03T06:18:37;0.30;99.90
59556;DHT22;45374;52.746;6.304;2023-04-03T06:21:03;0.40;99.90
59556;DHT22;45374;52.746;6.304;2023-04-03T06:23:30;0.50;99.90
59556;DHT22;45374;52.746;6.304;2023-04-03T06:25:55;0.60;99.90
59556;DHT22;45374;52.746;6.304;2023-04-03T06:28:21;0.60;99.90
59556;DHT22;45374;52.746;6.304;2023-04-03T06:30:46;0.70;99.90
59556;DHT22;45374;52.746;6.304;2023-04-03T06:33:12;0.70;99.90
59556;DHT22;45374;52.746;6.304;2023-04-03T06:35:37;0.80;99.90
59556;DHT22;45374;52.746;6.304;2023-04-03T06:38:03;0.80;99.90
59556;DHT22;45374;52.746;6.304;2023-04-03T06:40:34;0.90;99.90
59556;DHT22;45374;52.746;6.304;2023-04-03T06:43:01;1.00;99.90
59556;DHT22;45374;52.746;6.304;2023-04-03T06:45:26;1.10;99.90
59556;DHT22;45374;52.746;6.304;2023-04-03T06:47:53;1.10;99.90
59556;DHT22;45374;52.746;6.304;2023-04-03T06:50:19;1.20;99.90
59556;DHT22;45374;52.746;6.304;2023-04-03T06:52:44;1.30;99.90
59556;DHT22;45374;52.746;6.304;2023-04-03T06:55:11;1.30;99.90
59556;DHT22;45374;52.746;6.304;2023-04-03T06:57:37;1.40;99.90
59556;DHT22;45374;52.746;6.304;2023-04-03T07:00:04;1.50;99.90
59556;DHT22;45374;52.746;6.304;2023-04-03T07:02:30;1.60;99.90
59556;DHT22;45374;52.746;6.304;2023-04-03T07:04:55;1.70;99.90
59556;DHT22;45374;52.746;6.304;2023-04-03T07:07:21;1.80;99.90
59556;DHT22;45374;52.746;6.304;2023-04-03T07:09:47;1.90;99.90
59556;DHT22;45374;52.746;6.304;2023-04-03T07:12:13;2.00;99.90
59556;DHT22;45374;52.746;6.304;2023-04-03T07:14:39;2.10;99.90
59556;DHT22;45374;52.746;6.304;2023-04-03T07:17:04;2.10;99.90
59556;DHT22;45374;52.746;6.304;2023-04-03T07:19:30;2.20;99.90
59556;DHT22;45374;52.746;6.304;2023-04-03T07:21:56;2.30;99.90
59556;DHT22;45374;52.746;6.304;2023-04-03T07:24:22;2.40;99.90
59556;DHT22;45374;52.746;6.304;2023-04-03T07:26:51;2.50;99.90
59556;DHT22;45374;52.746;6.304;2023-04-03T07:29:17;2.60;99.90
59556;DHT22;45374;52.746;6.304;2023-04-03T07:31:42;2.80;99.90
59556;DHT22;45374;52.746;6.304;2023-04-03T07:34:10;2.90;99.90
59556;DHT22;45374;52.746;6.304;2023-04-03T07:36:36;3.00;99.90
59556;DHT22;45374;52.746;6.304;2023-04-03T07:39:01;3.00;99.90
59556;DHT22;45374;52.746;6.304;2023-04-03T07:41:27;3.20;99.90
59556;DHT22;45374;52.746;6.304;2023-04-03T07:43:54;3.30;99.90
59556;DHT22;45374;52.746;6.304;2023-04-03T07:46:20;3.30;99.90
59556;DHT22;45374;52.746;6.304;2023-04-03T07:48:46;3.40;99.90
59556;DHT22;45374;52.746;6.304;2023-04-03T07:51:11;3.50;99.90
59556;DHT22;45374;52.746;6.304;2023-04-03T07:53:38;3.60;99.90
59556;DHT22;45374;52.746;6.304;2023-04-03T07:56:03;3.60;99.90
59556;DHT22;45374;52.746;6.304;2023-04-03T07:58:30;3.70;99.90
59556;DHT22;45374;52.746;6.304;2023-04-03T08:00:55;3.80;99.90
59556;DHT22;45374;52.746;6.304;2023-04-03T08:03:21;3.90;99.90
59556;DHT22;45374;52.746;6.304;2023-04-03T08:05:49;3.90;99.90
59556;DHT22;45374;52.746;6.304;2023-04-03T08:08:23;4.00;99.90
59556;DHT22;45374;52.746;6.304;2023-04-03T08:10:50;4.10;99.90
59556;DHT22;45374;52.746;6.304;2023-04-03T08:13:16;4.10;99.90
59556;DHT22;45374;52.746;6.304;2023-04-03T08:15:42;4.20;99.90
59556;DHT22;45374;52.746;6.304;2023-04-03T08:18:07;4.30;99.90
59556;DHT22;45374;52.746;6.304;2023-04-03T08:20:33;4.40;99.90
59556;DHT22;45374;52.746;6.304;2023-04-03T08:22:58;4.40;99.90
59556;DHT22;45374;52.746;6.304;2023-04-03T08:25:24;4.50;99.90
59556;DHT22;45374;52.746;6.304;2023-04-03T08:27:50;4.60;99.90
59556;DHT22;45374;52.746;6.304;2023-04-03T08:30:16;4.60;99.90
59556;DHT22;45374;52.746;6.304;2023-04-03T08:32:42;4.70;99.90
59556;DHT22;45374;52.746;6.304;2023-04-03T08:35:08;4.70;99.90
59556;DHT22;45374;52.746;6.304;2023-04-03T08:37:38;4.80;99.90
59556;DHT22;45374;52.746;6.304;2023-04-03T08:40:06;5.00;99.90
59556;DHT22;45374;52.746;6.304;2023-04-03T08:42:39;5.00;99.90
59556;DHT22;45374;52.746;6.304;2023-04-03T08:45:42;5.10;99.90
59556;DHT22;45374;52.746;6.304;2023-04-03T08:48:20;5.10;99.90
59556;DHT22;45374;52.746;6.304;2023-04-03T08:50:49;5.20;99.90
59556;DHT22;45374;52.746;6.304;2023-04-03T08:53:19;5.30;99.90
59556;DHT22;45374;52.746;6.304;2023-04-03T08:55:47;5.40;99.90
59556;DHT22;45374;52.746;6.304;2023-04-03T09:00:50;5.50;99.90
59556;DHT22;45374;52.746;6.304;2023-04-03T09:03:19;5.60;99.90
59556;DHT22;45374;52.746;6.304;2023-04-03T09:06:00;5.70;99.90
59556;DHT22;45374;52.746;6.304;2023-04-03T09:08:29;5.80;99.90
59556;DHT22;45374;52.746;6.304;2023-04-03T09:11:26;5.80;99.90
59556;DHT22;45374;52.746;6.304;2023-04-03T09:17:03;6.00;99.90
59556;DHT22;45374;52.746;6.304;2023-04-03T09:19:43;6.20;99.90
59556;DHT22;45374;52.746;6.304;2023-04-03T09:22:23;6.20;99.90
59556;DHT22;45374;52.746;6.304;2023-04-03T09:24:58;6.30;99.90
59556;DHT22;45374;52.746;6.304;2023-04-03T09:27:25;6.40;99.90
59556;DHT22;45374;52.746;6.304;2023-04-03T09:29:53;6.50;99.90
59556;DHT22;45374;52.746;6.304;2023-04-03T09:32:31;6.50;99.90
59556;DHT22;45374;52.746;6.304;2023-04-03T09:35:01;6.60;99.90
59556;DHT22;45374;52.746;6.304;2023-04-03T09:37:43;6.60;99.90
59556;DHT22;45374;52.746;6.304;2023-04-03T09:40:30;6.60;99.90
59556;DHT22;45374;52.746;6.304;2023-04-03T09:42:59;6.70;99.90
59556;DHT22;45374;52.746;6.304;2023-04-03T09:45:34;6.60;99.90
59556;DHT22;45374;52.746;6.304;2023-04-03T09:55:54;7.00;99.90
59556;DHT22;45374;52.746;6.304;2023-04-03T09:58:30;7.10;99.90
59556;DHT22;45374;52.746;6.304;2023-04-03T10:00:59;7.20;99.90
59556;DHT22;45374;52.746;6.304;2023-04-03T10:03:28;7.30;99.90
59556;DHT22;45374;52.746;6.304;2023-04-03T10:05:54;7.30;99.90
59556;DHT22;45374;52.746;6.304;2023-04-03T10:11:18;7.30;99.90
59556;DHT22;45374;52.746;6.304;2023-04-03T10:16:23;7.30;99.90
59556;DHT22;45374;52.746;6.304;2023-04-03T10:18:58;7.40;99.90
59556;DHT22;45374;52.746;6.304;2023-04-03T10:21:40;7.40;99.90
59556;DHT22;45374;52.746;6.304;2023-04-03T10:24:36;7.40;99.90
59556;DHT22;45374;52.746;6.304;2023-04-03T10:27:26;7.50;99.90
59556;DHT22;45374;52.746;6.304;2023-04-03T10:30:13;7.60;99.90
59556;DHT22;45374;52.746;6.304;2023-04-03T10:38:28;7.70;99.90
59556;DHT22;45374;52.746;6.304;2023-04-03T10:41:22;7.70;99.90
59556;DHT22;45374;52.746;6.304;2023-04-03T10:46:53;7.90;99.90
59556;DHT22;45374;52.746;6.304;2023-04-03T10:55:29;7.90;99.90
59556;DHT22;45374;52.746;6.304;2023-04-03T10:57:58;8.00;99.90
59556;DHT22;45374;52.746;6.304;2023-04-03T11:00:40;8.10;99.90
59556;DHT22;45374;52.746;6.304;2023-04-03T11:03:13;8.10;99.90
59556;DHT22;45374;52.746;6.304;2023-04-03T11:05:48;8.20;99.90
59556;DHT22;45374;52.746;6.304;2023-04-03T11:11:08;8.30;99.90
59556;DHT22;45374;52.746;6.304;2023-04-03T11:16:26;8.40;99.90
59556;DHT22;45374;52.746;6.304;2023-04-03T11:18:56;8.30;99.50
59556;DHT22;45374;52.746;6.304;2023-04-03T11:21:32;8.40;99.90
59556;DHT22;45374;52.746;6.304;2023-04-03T11:24:03;8.50;99.90
59556;DHT22;45374;52.746;6.304;2023-04-03T11:26:37;8.40;98.90
59556;DHT22;45374;52.746;6.304;2023-04-03T11:29:09;8.40;98.20
59556;DHT22;45374;52.746;6.304;2023-04-03T11:34:47;8.60;99.90
59556;DHT22;45374;52.746;6.304;2023-04-03T11:42:37;8.50;99.90
59556;DHT22;45374;52.746;6.304;2023-04-03T11:50:31;8.90;99.90
59556;DHT22;45374;52.746;6.304;2023-04-03T11:52:59;9.00;99.90
59556;DHT22;45374;52.746;6.304;2023-04-03T12:14:03;9.10;98.40
59556;DHT22;45374;52.746;6.304;2023-04-03T12:16:32;9.10;99.90
59556;DHT22;45374;52.746;6.304;2023-04-03T12:19:00;9.10;99.90
59556;DHT22;45374;52.746;6.304;2023-04-03T12:26:40;9.30;99.90
59556;DHT22;45374;52.746;6.304;2023-04-03T12:31:50;9.50;99.90
59556;DHT22;45374;52.746;6.304;2023-04-03T12:44:13;9.50;98.60
59556;DHT22;45374;52.746;6.304;2023-04-03T12:46:22;9.50;99.60
59556;DHT22;45374;52.746;6.304;2023-04-03T12:48:57;9.50;99.60
59556;DHT22;45374;52.746;6.304;2023-04-03T12:54:00;9.60;99.90
59556;DHT22;45374;52.746;6.304;2023-04-03T12:56:29;9.70;99.90
59556;DHT22;45374;52.746;6.304;2023-04-03T12:59:41;9.70;99.90
59556;DHT22;45374;52.746;6.304;2023-04-03T13:01:43;9.80;99.90
59556;DHT22;45374;52.746;6.304;2023-04-03T13:04:10;9.90;99.90
59556;DHT22;45374;52.746;6.304;2023-04-03T13:06:42;10.00;99.90
59556;DHT22;45374;52.746;6.304;2023-04-03T13:09:22;10.10;99.90
59556;DHT22;45374;52.746;6.304;2023-04-03T13:11:50;10.10;98.40
59556;DHT22;45374;52.746;6.304;2023-04-03T13:14:23;10.00;96.20
59556;DHT22;45374;52.746;6.304;2023-04-03T13:17:00;9.80;96.40
59556;DHT22;45374;52.746;6.304;2023-04-03T13:19:28;9.80;96.10
59556;DHT22;45374;52.746;6.304;2023-04-03T13:22:01;9.80;96.90
59556;DHT22;45374;52.746;6.304;2023-04-03T13:24:29;9.90;97.50
59556;DHT22;45374;52.746;6.304;2023-04-03T13:26:56;9.80;95.10
59556;DHT22;45374;52.746;6.304;2023-04-03T13:29:30;9.70;96.70
59556;DHT22;45374;52.746;6.304;2023-04-03T13:31:57;9.70;96.30
59556;DHT22;45374;52.746;6.304;2023-04-03T13:34:25;9.90;98.30
59556;DHT22;45374;52.746;6.304;2023-04-03T13:41:53;10.20;98.40
59556;DHT22;45374;52.746;6.304;2023-04-03T13:46:48;10.20;99.20
59556;DHT22;45374;52.746;6.304;2023-04-03T13:49:19;10.20;98.80
59556;DHT22;45374;52.746;6.304;2023-04-03T13:51:45;10.20;98.30
59556;DHT22;45374;52.746;6.304;2023-04-03T13:54:36;10.20;99.00
59556;DHT22;45374;52.746;6.304;2023-04-03T13:57:10;10.40;99.40
59556;DHT22;45374;52.746;6.304;2023-04-03T13:59:36;10.50;98.30
59556;DHT22;45374;52.746;6.304;2023-04-03T14:04:33;10.40;97.00
59556;DHT22;45374;52.746;6.304;2023-04-03T14:07:11;10.40;96.50
59556;DHT22;45374;52.746;6.304;2023-04-03T14:09:37;10.40;96.80
59556;DHT22;45374;52.746;6.304;2023-04-03T14:12:07;10.40;98.90
59556;DHT22;45374;52.746;6.304;2023-04-03T14:14:35;10.40;97.30
59556;DHT22;45374;52.746;6.304;2023-04-03T14:17:10;10.40;97.00
59556;DHT22;45374;52.746;6.304;2023-04-03T14:19:38;10.40;97.30
59556;DHT22;45374;52.746;6.304;2023-04-03T14:22:17;10.50;98.40
59556;DHT22;45374;52.746;6.304;2023-04-03T14:24:43;10.50;96.90
59556;DHT22;45374;52.746;6.304;2023-04-03T14:27:25;10.40;96.30
59556;DHT22;45374;52.746;6.304;2023-04-03T14:29:53;10.40;95.10
59556;DHT22;45374;52.746;6.304;2023-04-03T14:32:21;10.40;95.80
59556;DHT22;45374;52.746;6.304;2023-04-03T14:34:49;10.40;95.30
59556;DHT22;45374;52.746;6.304;2023-04-03T14:37:21;10.30;95.20
59556;DHT22;45374;52.746;6.304;2023-04-03T14:39:47;10.30;94.30
59556;DHT22;45374;52.746;6.304;2023-04-03T14:42:17;10.30;94.70
59556;DHT22;45374;52.746;6.304;2023-04-03T14:44:43;10.30;93.80
59556;DHT22;45374;52.746;6.304;2023-04-03T14:47:11;10.30;95.50
59556;DHT22;45374;52.746;6.304;2023-04-03T14:49:37;10.40;96.20
59556;DHT22;45374;52.746;6.304;2023-04-03T14:52:03;10.40;95.30
59556;DHT22;45374;52.746;6.304;2023-04-03T14:54:28;10.40;96.20
59556;DHT22;45374;52.746;6.304;2023-04-03T14:56:55;10.50;94.80
59556;DHT22;45374;52.746;6.304;2023-04-03T14:59:22;10.50;95.10
59556;DHT22;45374;52.746;6.304;2023-04-03T15:01:48;10.60;96.00
59556;DHT22;45374;52.746;6.304;2023-04-03T15:04:18;10.50;95.60
59556;DHT22;45374;52.746;6.304;2023-04-03T15:06:45;10.60;93.80
59556;DHT22;45374;52.746;6.304;2023-04-03T15:09:22;10.50;95.00
59556;DHT22;45374;52.746;6.304;2023-04-03T15:11:49;10.60;95.40
59556;DHT22;45374;52.746;6.304;2023-04-03T15:14:15;10.60;94.60
59556;DHT22;45374;52.746;6.304;2023-04-03T15:16:41;10.80;95.60
59556;DHT22;45374;52.746;6.304;2023-04-03T15:19:06;11.10;94.00
59556;DHT22;45374;52.746;6.304;2023-04-03T15:21:32;11.10;93.60
59556;DHT22;45374;52.746;6.304;2023-04-03T15:24:09;11.10;92.30
59556;DHT22;45374;52.746;6.304;2023-04-03T15:26:35;11.20;91.80
59556;DHT22;45374;52.746;6.304;2023-04-03T15:29:01;11.10;91.90
59556;DHT22;45374;52.746;6.304;2023-04-03T15:31:27;11.20;91.00
59556;DHT22;45374;52.746;6.304;2023-04-03T15:33:52;11.30;88.90
59556;DHT22;45374;52.746;6.304;2023-04-03T15:36:18;11.30;88.90
59556;DHT22;45374;52.746;6.304;2023-04-03T15:38:43;11.40;89.00
59556;DHT22;45374;52.746;6.304;2023-04-03T15:41:09;11.40;88.60
59556;DHT22;45374;52.746;6.304;2023-04-03T15:43:34;11.60;89.30
59556;DHT22;45374;52.746;6.304;2023-04-03T15:46:00;11.60;89.90
59556;DHT22;45374;52.746;6.304;2023-04-03T15:48:27;11.50;88.20
59556;DHT22;45374;52.746;6.304;2023-04-03T15:50:53;11.40;86.20
59556;DHT22;45374;52.746;6.304;2023-04-03T15:53:19;11.40;84.70
59556;DHT22;45374;52.746;6.304;2023-04-03T15:55:45;11.50;81.00
59556;DHT22;45374;52.746;6.304;2023-04-03T15:58:11;11.50;80.10
59556;DHT22;45374;52.746;6.304;2023-04-03T16:00:36;11.60;80.10
59556;DHT22;45374;52.746;6.304;2023-04-03T16:03:09;11.70;83.10
59556;DHT22;45374;52.746;6.304;2023-04-03T16:05:36;11.60;80.70
59556;DHT22;45374;52.746;6.304;2023-04-03T16:08:02;11.70;81.20
59556;DHT22;45374;52.746;6.304;2023-04-03T16:10:27;11.90;81.70
59556;DHT22;45374;52.746;6.304;2023-04-03T16:12:53;12.10;79.30
59556;DHT22;45374;52.746;6.304;2023-04-03T16:15:18;12.30;79.90
59556;DHT22;45374;52.746;6.304;2023-04-03T16:17:44;12.50;80.40
59556;DHT22;45374;52.746;6.304;2023-04-03T16:20:11;12.70;79.80
59556;DHT22;45374;52.746;6.304;2023-04-03T16:22:38;13.10;80.10
59556;DHT22;45374;52.746;6.304;2023-04-03T16:25:06;13.30;76.90
59556;DHT22;45374;52.746;6.304;2023-04-03T16:27:32;13.10;73.30
59556;DHT22;45374;52.746;6.304;2023-04-03T16:29:58;12.90;74.30
59556;DHT22;45374;52.746;6.304;2023-04-03T16:32:24;12.70;72.30
59556;DHT22;45374;52.746;6.304;2023-04-03T16:34:52;12.50;73.90
59556;DHT22;45374;52.746;6.304;2023-04-03T16:37:17;12.60;73.50
59556;DHT22;45374;52.746;6.304;2023-04-03T16:39:43;12.60;74.50
59556;DHT22;45374;52.746;6.304;2023-04-03T16:42:09;12.50;74.80
59556;DHT22;45374;52.746;6.304;2023-04-03T16:44:35;12.40;74.00
59556;DHT22;45374;52.746;6.304;2023-04-03T16:47:01;12.30;74.50
59556;DHT22;45374;52.746;6.304;2023-04-03T16:49:27;12.30;75.20
59556;DHT22;45374;52.746;6.304;2023-04-03T16:51:57;12.20;74.30
59556;DHT22;45374;52.746;6.304;2023-04-03T16:54:23;12.00;73.90
59556;DHT22;45374;52.746;6.304;2023-04-03T16:56:50;11.80;74.50
59556;DHT22;45374;52.746;6.304;2023-04-03T16:59:16;11.80;76.50
59556;DHT22;45374;52.746;6.304;2023-04-03T17:01:42;12.10;76.60
59556;DHT22;45374;52.746;6.304;2023-04-03T17:04:07;12.50;75.40
59556;DHT22;45374;52.746;6.304;2023-04-03T17:06:33;12.70;75.30
59556;DHT22;45374;52.746;6.304;2023-04-03T17:08:58;12.50;72.40
59556;DHT22;45374;52.746;6.304;2023-04-03T17:11:24;12.50;74.20
59556;DHT22;45374;52.746;6.304;2023-04-03T17:13:50;12.30;73.90
59556;DHT22;45374;52.746;6.304;2023-04-03T17:16:16;11.80;73.70
59556;DHT22;45374;52.746;6.304;2023-04-03T17:18:44;11.20;75.30
59556;DHT22;45374;52.746;6.304;2023-04-03T17:21:11;10.70;76.50
59556;DHT22;45374;52.746;6.304;2023-04-03T17:23:37;10.40;77.90
59556;DHT22;45374;52.746;6.304;2023-04-03T17:26:04;10.40;80.50
59556;DHT22;45374;52.746;6.304;2023-04-03T17:28:30;10.70;81.80
59556;DHT22;45374;52.746;6.304;2023-04-03T17:31:03;11.20;80.10
59556;DHT22;45374;52.746;6.304;2023-04-03T17:33:28;11.70;78.70